Wallblake, Anguilla

8:55 PM AST on May 29, 2015 (GMT -0400)
West End, Anguilla | | Change Station
CLOSE
Current Station
Personal Weather Station
Location: Anguilla,
Elevation: 46 ft
Nearby Weather Stations

Elev 46 ft 18.17 °N, 63.15 °W | Updated 5 minutes ago

Light Rain Showers
Light Showers Rain
79.4 °F
Feels Like 84 °F
N
8.0
Wind Variable Wind from East
Gusts 8.0 mph

Today
High -- | Low -- °F
--% Chance of Precip.
Yesterday
High -- | Low -- °F
Precip. -- in
5:35 AM 6:43 PM
Waxing Gibbous, 87% visible
Pressure 29.98 in
Visibility 6.2 miles
Clouds Scattered Clouds 1800 ft
Heat Index 84 °F
Dew Point 76 °F
Humidity 89%
Rainfall 0.02 in
Snow Depth Not available.
UV 0 out of 12
Pollen Not available.
Air Quality Not available.
Flu Activity Not available.
METAR TNCM 300000Z 09008KT 070V130 9999 -SHRA SCT018 27/24 Q1015 A2999 NOSIG

More Conditions Fewer Conditions

Pressure 29.98 in
Visibility 6.2 miles
Clouds Scattered Clouds 1800 ft
Heat Index 84 °F
Dew Point 76 °F
Humidity 89%
Rainfall 0.02 in
Snow Depth Not available.
UV 0 out of 12
Pollen Not available.
Air Quality Not available.
Flu Activity Not available.
METAR TNCM 300000Z 09008KT 070V130 9999 -SHRA SCT018 27/24 Q1015 A2999 NOSIG

More Conditions Fewer Conditions

10-Day Weather Forecast

Almanac

Astronomy

May. 29, 2015 Rise Set
Actual Time
Civil Twilight
Nautical Twilight
Astronomical Twilight
Moon
Length of Visible Light
Length of Day
Tomorrow will be .
, % of the Moon is Illuminated

Today's Extremes

Country Highs Country Lows

Community

WunderPhotos

Upload Photos

1,825,411 photos uploaded!

WunderBlogs® & News

Nearby

Air Quality

  Air Quality AQ Index Pollutant
Not available.

Snow Depth

Station Depth Elevation

Earthquake Activity

City Distance Mag. Time & Date
Minimum magnitude displayed is 2.5.

Coastal Water Temperatures

Place Temperature

Stations

Nearby Weather Stations

Station Location Temp. Windchill Dew Point Humidity Wind Precip. Elev Updated Type